Priekuli, Latvia

12:54 PM EEST on April 25, 2017 (GMT +0300)
Unnamed Road | | Change Station

Elev 0 ft 57.22 °N, 25.30 °E | Updated 2 minutes ago

Rain
Rain
54.1 °F
Feels Like 54.1 °F
N
1.9
Wind Variable Wind from South
Gusts 7.5 mph

Today
High -- | Low -- °F
--% Chance of Precip.
Yesterday
High -- | Low -- °F
Precip. -- in
Pressure 29.56 in
Visibility 5.6 miles
Clouds Mostly Cloudy 1000 ft
Overcast 1600 ft
Dew Point 42 °F
Humidity 62%
Rainfall Not available.
Snow Depth Not available.
5:43 AM 8:50 PM
Waning Crescent, 2% visible
METAR EVRA 250950Z 18011KT 9000 -RA BKN010 OVC016 06/05 Q1001 TEMPO SCT012 OVC015
Pressure 29.56 in
Visibility 5.6 miles
Clouds Mostly Cloudy 1000 ft
Overcast 1600 ft
Dew Point 42 °F
Humidity 62%
Rainfall Not available.
Snow Depth Not available.
5:43 AM 8:50 PM
Waning Crescent, 2% visible
METAR EVRA 250950Z 18011KT 9000 -RA BKN010 OVC016 06/05 Q1001 TEMPO SCT012 OVC015

Get Severe Weather Alerts

Thanks for signing up!

Be on the lookout for a verification email in your inbox.

You'll start receiving the daily forecast at 8 AM.

×

10-Day Weather Forecast

×

Almanac

Astronomy

Apr. 25, 2017 Rise Set
Actual Time
Civil Twilight
Nautical Twilight
Astronomical Twilight
Moon
Length of Visible Light
Length of Day
Tomorrow will be .
, % of the Moon is Illuminated

Today's Extremes

Country Highs Country Lows

Community

WunderPhotos

WunderBlog® & News

Nearby

Air Quality

  Air Quality AQ Index Pollutant
Not available.

Snow Depth

Station Depth Elevation

Earthquake Activity

City Distance Mag. Time & Date
Minimum magnitude displayed is 2.5.

Coastal Water Temperatures

Place Temperature

Stations

Nearby Weather Stations

Station Location Temp. Windchill Dew Point Humidity Wind Precip. Elev Updated Type